sensor_id;sensor_type;location;lat;lon;timestamp;P1;durP1;ratioP1;P2;durP2;ratioP2
5937;SDS011;2994;51.220;4.412;2023-05-10T00:00:26;15.90;;;11.57;;
5937;SDS011;2994;51.220;4.412;2023-05-10T00:02:52;21.10;;;13.47;;
5937;SDS011;2994;51.220;4.412;2023-05-10T00:05:17;15.67;;;12.40;;
5937;SDS011;2994;51.220;4.412;2023-05-10T00:07:43;14.17;;;12.27;;
5937;SDS011;2994;51.220;4.412;2023-05-10T00:10:09;14.83;;;12.03;;
5937;SDS011;2994;51.220;4.412;2023-05-10T00:12:35;13.73;;;11.87;;
5937;SDS011;2994;51.220;4.412;2023-05-10T00:15:01;14.23;;;11.40;;
5937;SDS011;2994;51.220;4.412;2023-05-10T00:17:27;14.20;;;11.70;;
5937;SDS011;2994;51.220;4.412;2023-05-10T00:19:53;15.43;;;10.13;;
5937;SDS011;2994;51.220;4.412;2023-05-10T00:22:19;14.73;;;11.47;;
5937;SDS011;2994;51.220;4.412;2023-05-10T00:24:44;16.07;;;11.10;;
5937;SDS011;2994;51.220;4.412;2023-05-10T00:27:10;13.30;;;10.77;;
5937;SDS011;2994;51.220;4.412;2023-05-10T00:29:35;19.80;;;12.93;;
5937;SDS011;2994;51.220;4.412;2023-05-10T00:32:01;15.40;;;11.17;;
5937;SDS011;2994;51.220;4.412;2023-05-10T00:34:26;22.73;;;13.00;;
5937;SDS011;2994;51.220;4.412;2023-05-10T00:36:52;15.23;;;12.53;;
5937;SDS011;2994;51.220;4.412;2023-05-10T00:39:17;19.60;;;12.30;;
5937;SDS011;2994;51.220;4.412;2023-05-10T00:41:43;17.90;;;11.47;;
5937;SDS011;2994;51.220;4.412;2023-05-10T00:44:08;16.77;;;13.00;;
5937;SDS011;2994;51.220;4.412;2023-05-10T00:46:34;18.03;;;11.70;;
5937;SDS011;2994;51.220;4.412;2023-05-10T00:49:00;15.10;;;11.50;;
5937;SDS011;2994;51.220;4.412;2023-05-10T00:51:25;16.20;;;11.03;;
5937;SDS011;2994;51.220;4.412;2023-05-10T00:53:51;15.20;;;11.20;;
5937;SDS011;2994;51.220;4.412;2023-05-10T00:56:16;15.93;;;10.70;;
5937;SDS011;2994;51.220;4.412;2023-05-10T00:58:42;19.27;;;11.10;;
5937;SDS011;2994;51.220;4.412;2023-05-10T01:01:08;17.77;;;12.13;;
5937;SDS011;2994;51.220;4.412;2023-05-10T01:03:34;14.23;;;11.87;;
5937;SDS011;2994;51.220;4.412;2023-05-10T01:06:00;13.87;;;11.70;;
5937;SDS011;2994;51.220;4.412;2023-05-10T01:08:26;16.63;;;11.67;;
5937;SDS011;2994;51.220;4.412;2023-05-10T01:10:52;15.40;;;11.30;;
5937;SDS011;2994;51.220;4.412;2023-05-10T01:13:23;19.23;;;12.33;;
5937;SDS011;2994;51.220;4.412;2023-05-10T01:15:57;19.50;;;14.73;;
5937;SDS011;2994;51.220;4.412;2023-05-10T01:18:23;22.97;;;13.23;;
5937;SDS011;2994;51.220;4.412;2023-05-10T01:20:54;19.80;;;14.70;;
5937;SDS011;2994;51.220;4.412;2023-05-10T01:24:00;20.40;;;15.17;;
5937;SDS011;2994;51.220;4.412;2023-05-10T01:34:38;26.53;;;19.30;;
5937;SDS011;2994;51.220;4.412;2023-05-10T01:37:13;23.60;;;18.83;;
5937;SDS011;2994;51.220;4.412;2023-05-10T01:40:03;29.77;;;18.80;;
5937;SDS011;2994;51.220;4.412;2023-05-10T01:42:51;27.83;;;19.83;;
5937;SDS011;2994;51.220;4.412;2023-05-10T01:45:29;26.20;;;15.57;;
5937;SDS011;2994;51.220;4.412;2023-05-10T01:48:07;20.43;;;15.53;;
5937;SDS011;2994;51.220;4.412;2023-05-10T01:50:35;21.90;;;17.80;;
5937;SDS011;2994;51.220;4.412;2023-05-10T01:53:02;23.73;;;17.53;;
5937;SDS011;2994;51.220;4.412;2023-05-10T01:55:32;23.57;;;17.63;;
5937;SDS011;2994;51.220;4.412;2023-05-10T01:58:10;25.67;;;17.60;;
5937;SDS011;2994;51.220;4.412;2023-05-10T02:00:49;28.20;;;18.53;;
5937;SDS011;2994;51.220;4.412;2023-05-10T02:03:16;22.50;;;16.73;;
5937;SDS011;2994;51.220;4.412;2023-05-10T02:05:45;22.57;;;14.90;;
5937;SDS011;2994;51.220;4.412;2023-05-10T02:08:13;22.27;;;16.33;;
5937;SDS011;2994;51.220;4.412;2023-05-10T02:10:40;19.90;;;14.67;;
5937;SDS011;2994;51.220;4.412;2023-05-10T02:13:07;18.50;;;13.97;;
5937;SDS011;2994;51.220;4.412;2023-05-10T02:15:35;18.60;;;13.60;;
5937;SDS011;2994;51.220;4.412;2023-05-10T02:18:02;20.20;;;14.30;;
5937;SDS011;2994;51.220;4.412;2023-05-10T02:20:28;23.63;;;14.17;;
5937;SDS011;2994;51.220;4.412;2023-05-10T02:22:57;18.87;;;13.53;;
5937;SDS011;2994;51.220;4.412;2023-05-10T02:25:23;20.13;;;14.83;;
5937;SDS011;2994;51.220;4.412;2023-05-10T02:27:51;19.93;;;13.80;;
5937;SDS011;2994;51.220;4.412;2023-05-10T02:30:19;22.63;;;14.50;;
5937;SDS011;2994;51.220;4.412;2023-05-10T02:32:45;15.80;;;13.00;;
5937;SDS011;2994;51.220;4.412;2023-05-10T02:35:14;19.77;;;13.47;;
5937;SDS011;2994;51.220;4.412;2023-05-10T02:37:40;20.57;;;14.57;;
5937;SDS011;2994;51.220;4.412;2023-05-10T02:40:06;17.90;;;14.40;;
5937;SDS011;2994;51.220;4.412;2023-05-10T02:42:35;21.20;;;15.50;;
5937;SDS011;2994;51.220;4.412;2023-05-10T02:45:02;21.00;;;15.67;;
5937;SDS011;2994;51.220;4.412;2023-05-10T02:47:32;25.40;;;17.73;;
5937;SDS011;2994;51.220;4.412;2023-05-10T02:49:58;36.23;;;21.90;;
5937;SDS011;2994;51.220;4.412;2023-05-10T02:52:25;40.03;;;25.67;;
5937;SDS011;2994;51.220;4.412;2023-05-10T02:54:58;48.97;;;29.93;;
5937;SDS011;2994;51.220;4.412;2023-05-10T02:57:31;44.27;;;29.77;;
5937;SDS011;2994;51.220;4.412;2023-05-10T02:59:58;45.87;;;28.90;;
5937;SDS011;2994;51.220;4.412;2023-05-10T03:02:25;36.30;;;24.93;;
5937;SDS011;2994;51.220;4.412;2023-05-10T03:04:51;40.30;;;26.30;;
5937;SDS011;2994;51.220;4.412;2023-05-10T03:07:16;39.43;;;24.20;;
5937;SDS011;2994;51.220;4.412;2023-05-10T03:09:44;35.60;;;23.70;;
5937;SDS011;2994;51.220;4.412;2023-05-10T03:20:49;33.37;;;23.00;;
5937;SDS011;2994;51.220;4.412;2023-05-10T03:26:02;38.67;;;23.07;;
5937;SDS011;2994;51.220;4.412;2023-05-10T03:28:29;34.10;;;20.00;;
5937;SDS011;2994;51.220;4.412;2023-05-10T03:30:56;31.50;;;21.03;;
5937;SDS011;2994;51.220;4.412;2023-05-10T03:33:22;30.70;;;20.70;;
5937;SDS011;2994;51.220;4.412;2023-05-10T03:35:48;32.50;;;19.70;;
5937;SDS011;2994;51.220;4.412;2023-05-10T03:38:13;30.87;;;20.67;;
5937;SDS011;2994;51.220;4.412;2023-05-10T03:40:39;35.57;;;21.70;;
5937;SDS011;2994;51.220;4.412;2023-05-10T03:43:05;34.63;;;21.23;;
5937;SDS011;2994;51.220;4.412;2023-05-10T03:45:31;34.37;;;21.10;;
5937;SDS011;2994;51.220;4.412;2023-05-10T03:47:56;35.03;;;22.17;;
5937;SDS011;2994;51.220;4.412;2023-05-10T03:50:25;35.83;;;21.13;;
5937;SDS011;2994;51.220;4.412;2023-05-10T03:53:02;32.40;;;22.13;;
5937;SDS011;2994;51.220;4.412;2023-05-10T03:55:28;31.50;;;20.90;;
5937;SDS011;2994;51.220;4.412;2023-05-10T03:57:54;41.10;;;21.90;;
5937;SDS011;2994;51.220;4.412;2023-05-10T04:00:20;33.40;;;21.30;;
5937;SDS011;2994;51.220;4.412;2023-05-10T04:02:45;32.33;;;20.37;;
5937;SDS011;2994;51.220;4.412;2023-05-10T04:05:10;27.77;;;18.13;;
5937;SDS011;2994;51.220;4.412;2023-05-10T04:07:36;32.57;;;20.30;;
5937;SDS011;2994;51.220;4.412;2023-05-10T04:10:01;30.87;;;20.80;;
5937;SDS011;2994;51.220;4.412;2023-05-10T04:12:27;30.67;;;19.70;;
5937;SDS011;2994;51.220;4.412;2023-05-10T04:14:52;32.57;;;21.10;;
5937;SDS011;2994;51.220;4.412;2023-05-10T04:17:18;33.80;;;21.43;;
5937;SDS011;2994;51.220;4.412;2023-05-10T04:19:43;31.63;;;20.00;;
5937;SDS011;2994;51.220;4.412;2023-05-10T04:22:09;34.20;;;20.33;;
5937;SDS011;2994;51.220;4.412;2023-05-10T04:24:34;29.70;;;19.83;;
5937;SDS011;2994;51.220;4.412;2023-05-10T04:27:00;30.03;;;19.70;;
5937;SDS011;2994;51.220;4.412;2023-05-10T04:29:25;32.70;;;20.80;;
5937;SDS011;2994;51.220;4.412;2023-05-10T04:31:51;32.20;;;20.80;;
5937;SDS011;2994;51.220;4.412;2023-05-10T04:34:17;31.53;;;21.43;;
5937;SDS011;2994;51.220;4.412;2023-05-10T04:36:42;31.40;;;20.03;;
5937;SDS011;2994;51.220;4.412;2023-05-10T04:39:08;35.53;;;20.67;;
5937;SDS011;2994;51.220;4.412;2023-05-10T04:41:34;30.80;;;20.70;;
5937;SDS011;2994;51.220;4.412;2023-05-10T04:44:00;34.03;;;21.87;;
5937;SDS011;2994;51.220;4.412;2023-05-10T04:46:25;36.97;;;21.80;;
5937;SDS011;2994;51.220;4.412;2023-05-10T04:48:51;33.97;;;21.47;;
5937;SDS011;2994;51.220;4.412;2023-05-10T04:51:16;31.13;;;19.07;;
5937;SDS011;2994;51.220;4.412;2023-05-10T04:53:42;32.73;;;21.00;;
5937;SDS011;2994;51.220;4.412;2023-05-10T04:56:07;37.07;;;20.17;;
5937;SDS011;2994;51.220;4.412;2023-05-10T04:58:32;33.63;;;20.37;;
5937;SDS011;2994;51.220;4.412;2023-05-10T05:01:04;35.17;;;21.80;;
5937;SDS011;2994;51.220;4.412;2023-05-10T05:03:33;33.23;;;20.23;;
5937;SDS011;2994;51.220;4.412;2023-05-10T05:05:59;34.60;;;20.47;;
5937;SDS011;2994;51.220;4.412;2023-05-10T05:08:24;36.63;;;21.73;;
5937;SDS011;2994;51.220;4.412;2023-05-10T05:10:50;36.00;;;21.90;;
5937;SDS011;2994;51.220;4.412;2023-05-10T05:13:15;30.33;;;21.57;;
5937;SDS011;2994;51.220;4.412;2023-05-10T05:15:41;34.17;;;21.50;;
5937;SDS011;2994;51.220;4.412;2023-05-10T05:18:06;38.23;;;22.73;;
5937;SDS011;2994;51.220;4.412;2023-05-10T05:20:32;33.87;;;21.17;;
5937;SDS011;2994;51.220;4.412;2023-05-10T05:22:59;31.53;;;21.27;;
5937;SDS011;2994;51.220;4.412;2023-05-10T05:25:24;30.83;;;21.00;;
5937;SDS011;2994;51.220;4.412;2023-05-10T05:27:50;31.30;;;21.70;;
5937;SDS011;2994;51.220;4.412;2023-05-10T05:30:15;31.33;;;21.53;;
5937;SDS011;2994;51.220;4.412;2023-05-10T05:32:40;30.60;;;21.43;;
5937;SDS011;2994;51.220;4.412;2023-05-10T05:35:06;29.73;;;20.50;;
5937;SDS011;2994;51.220;4.412;2023-05-10T05:37:32;25.90;;;17.33;;
5937;SDS011;2994;51.220;4.412;2023-05-10T05:39:57;25.00;;;18.60;;
5937;SDS011;2994;51.220;4.412;2023-05-10T05:42:23;27.27;;;17.93;;
5937;SDS011;2994;51.220;4.412;2023-05-10T05:44:48;27.90;;;17.60;;
5937;SDS011;2994;51.220;4.412;2023-05-10T05:47:13;23.77;;;17.20;;
5937;SDS011;2994;51.220;4.412;2023-05-10T05:49:39;26.70;;;17.90;;
5937;SDS011;2994;51.220;4.412;2023-05-10T05:52:04;27.03;;;19.57;;
5937;SDS011;2994;51.220;4.412;2023-05-10T05:54:30;27.93;;;19.03;;
5937;SDS011;2994;51.220;4.412;2023-05-10T05:56:57;27.07;;;16.93;;
5937;SDS011;2994;51.220;4.412;2023-05-10T05:59:23;25.03;;;16.83;;
5937;SDS011;2994;51.220;4.412;2023-05-10T06:01:49;23.83;;;17.50;;
5937;SDS011;2994;51.220;4.412;2023-05-10T06:04:15;24.63;;;17.57;;
5937;SDS011;2994;51.220;4.412;2023-05-10T06:06:41;25.83;;;16.97;;
5937;SDS011;2994;51.220;4.412;2023-05-10T06:09:07;25.43;;;17.50;;
5937;SDS011;2994;51.220;4.412;2023-05-10T06:11:33;28.60;;;16.93;;
5937;SDS011;2994;51.220;4.412;2023-05-10T06:13:59;24.93;;;17.50;;
5937;SDS011;2994;51.220;4.412;2023-05-10T06:16:25;27.07;;;18.47;;
5937;SDS011;2994;51.220;4.412;2023-05-10T06:18:50;24.47;;;18.67;;
5937;SDS011;2994;51.220;4.412;2023-05-10T06:21:16;22.00;;;15.70;;
5937;SDS011;2994;51.220;4.412;2023-05-10T06:23:41;23.20;;;16.20;;
5937;SDS011;2994;51.220;4.412;2023-05-10T06:26:07;27.33;;;19.23;;
5937;SDS011;2994;51.220;4.412;2023-05-10T06:28:32;22.27;;;16.93;;
5937;SDS011;2994;51.220;4.412;2023-05-10T06:30:58;24.40;;;18.63;;
5937;SDS011;2994;51.220;4.412;2023-05-10T06:33:24;27.37;;;19.37;;
5937;SDS011;2994;51.220;4.412;2023-05-10T06:35:50;28.00;;;18.67;;
5937;SDS011;2994;51.220;4.412;2023-05-10T06:38:15;25.17;;;18.33;;
5937;SDS011;2994;51.220;4.412;2023-05-10T06:40:41;24.77;;;16.57;;
5937;SDS011;2994;51.220;4.412;2023-05-10T06:43:07;27.23;;;17.40;;
5937;SDS011;2994;51.220;4.412;2023-05-10T06:45:33;28.20;;;18.30;;
5937;SDS011;2994;51.220;4.412;2023-05-10T06:47:58;23.43;;;16.63;;
5937;SDS011;2994;51.220;4.412;2023-05-10T06:50:23;18.13;;;14.70;;
5937;SDS011;2994;51.220;4.412;2023-05-10T06:52:49;23.17;;;17.40;;
5937;SDS011;2994;51.220;4.412;2023-05-10T06:55:14;19.37;;;14.27;;
5937;SDS011;2994;51.220;4.412;2023-05-10T06:57:40;21.77;;;13.87;;
5937;SDS011;2994;51.220;4.412;2023-05-10T07:00:05;23.13;;;13.90;;
5937;SDS011;2994;51.220;4.412;2023-05-10T07:02:31;18.30;;;13.93;;
5937;SDS011;2994;51.220;4.412;2023-05-10T07:04:57;18.77;;;12.87;;
5937;SDS011;2994;51.220;4.412;2023-05-10T07:07:23;15.20;;;11.40;;
5937;SDS011;2994;51.220;4.412;2023-05-10T07:09:48;16.80;;;12.10;;
5937;SDS011;2994;51.220;4.412;2023-05-10T07:12:14;17.87;;;12.57;;
5937;SDS011;2994;51.220;4.412;2023-05-10T07:14:40;15.20;;;11.90;;
5937;SDS011;2994;51.220;4.412;2023-05-10T07:17:06;14.73;;;12.40;;
5937;SDS011;2994;51.220;4.412;2023-05-10T07:19:31;16.27;;;12.27;;
5937;SDS011;2994;51.220;4.412;2023-05-10T07:21:57;13.47;;;10.67;;
5937;SDS011;2994;51.220;4.412;2023-05-10T07:24:23;13.63;;;9.53;;
5937;SDS011;2994;51.220;4.412;2023-05-10T07:26:49;12.97;;;10.30;;
5937;SDS011;2994;51.220;4.412;2023-05-10T07:29:14;13.00;;;10.80;;
5937;SDS011;2994;51.220;4.412;2023-05-10T07:31:40;13.67;;;10.60;;
5937;SDS011;2994;51.220;4.412;2023-05-10T07:34:07;14.40;;;10.63;;
5937;SDS011;2994;51.220;4.412;2023-05-10T07:36:33;11.97;;;9.97;;
5937;SDS011;2994;51.220;4.412;2023-05-10T07:38:59;11.80;;;9.47;;
5937;SDS011;2994;51.220;4.412;2023-05-10T07:41:24;11.47;;;9.87;;
5937;SDS011;2994;51.220;4.412;2023-05-10T07:43:50;11.10;;;9.20;;
5937;SDS011;2994;51.220;4.412;2023-05-10T07:46:15;12.03;;;9.47;;
5937;SDS011;2994;51.220;4.412;2023-05-10T07:48:41;10.77;;;8.70;;
5937;SDS011;2994;51.220;4.412;2023-05-10T07:51:06;8.80;;;7.40;;
5937;SDS011;2994;51.220;4.412;2023-05-10T07:53:34;9.03;;;7.23;;
5937;SDS011;2994;51.220;4.412;2023-05-10T07:56:19;8.90;;;7.10;;
5937;SDS011;2994;51.220;4.412;2023-05-10T07:58:54;8.07;;;6.70;;
5937;SDS011;2994;51.220;4.412;2023-05-10T08:01:23;9.13;;;8.13;;
5937;SDS011;2994;51.220;4.412;2023-05-10T08:03:49;9.73;;;8.73;;
5937;SDS011;2994;51.220;4.412;2023-05-10T08:06:16;9.57;;;8.57;;
5937;SDS011;2994;51.220;4.412;2023-05-10T08:08:42;10.70;;;9.10;;
5937;SDS011;2994;51.220;4.412;2023-05-10T08:11:08;11.03;;;9.60;;
5937;SDS011;2994;51.220;4.412;2023-05-10T08:13:33;16.00;;;9.87;;
5937;SDS011;2994;51.220;4.412;2023-05-10T08:15:59;16.47;;;10.20;;
5937;SDS011;2994;51.220;4.412;2023-05-10T08:18:25;9.60;;;8.70;;
5937;SDS011;2994;51.220;4.412;2023-05-10T08:20:51;7.63;;;6.83;;
5937;SDS011;2994;51.220;4.412;2023-05-10T08:23:16;9.57;;;8.67;;
5937;SDS011;2994;51.220;4.412;2023-05-10T08:25:42;10.30;;;7.30;;
5937;SDS011;2994;51.220;4.412;2023-05-10T08:28:07;8.47;;;7.50;;
5937;SDS011;2994;51.220;4.412;2023-05-10T08:30:33;13.60;;;11.40;;
5937;SDS011;2994;51.220;4.412;2023-05-10T08:32:58;14.03;;;12.10;;
5937;SDS011;2994;51.220;4.412;2023-05-10T08:35:24;14.67;;;12.00;;
5937;SDS011;2994;51.220;4.412;2023-05-10T08:37:50;14.20;;;12.30;;
5937;SDS011;2994;51.220;4.412;2023-05-10T08:40:16;11.83;;;10.70;;
5937;SDS011;2994;51.220;4.412;2023-05-10T08:42:46;11.07;;;9.97;;
5937;SDS011;2994;51.220;4.412;2023-05-10T08:45:19;10.60;;;9.40;;
5937;SDS011;2994;51.220;4.412;2023-05-10T08:50:36;10.23;;;9.17;;
5937;SDS011;2994;51.220;4.412;2023-05-10T08:53:20;10.00;;;8.90;;
5937;SDS011;2994;51.220;4.412;2023-05-10T08:56:31;9.50;;;8.50;;
5937;SDS011;2994;51.220;4.412;2023-05-10T08:58:48;18.40;;;14.27;;
5937;SDS011;2994;51.220;4.412;2023-05-10T09:01:18;27.80;;;21.07;;
5937;SDS011;2994;51.220;4.412;2023-05-10T09:03:45;30.83;;;21.60;;
5937;SDS011;2994;51.220;4.412;2023-05-10T09:06:14;27.37;;;19.50;;
5937;SDS011;2994;51.220;4.412;2023-05-10T09:08:41;22.77;;;16.40;;
5937;SDS011;2994;51.220;4.412;2023-05-10T09:11:16;21.70;;;16.53;;
5937;SDS011;2994;51.220;4.412;2023-05-10T09:13:42;26.70;;;17.90;;
5937;SDS011;2994;51.220;4.412;2023-05-10T09:16:08;20.10;;;16.17;;
5937;SDS011;2994;51.220;4.412;2023-05-10T09:18:34;18.97;;;14.53;;
5937;SDS011;2994;51.220;4.412;2023-05-10T09:20:59;19.43;;;15.10;;
5937;SDS011;2994;51.220;4.412;2023-05-10T09:23:25;21.27;;;14.93;;
5937;SDS011;2994;51.220;4.412;2023-05-10T09:26:06;18.60;;;13.70;;
5937;SDS011;2994;51.220;4.412;2023-05-10T09:28:54;14.80;;;11.70;;
5937;SDS011;2994;51.220;4.412;2023-05-10T09:31:22;17.00;;;13.07;;
5937;SDS011;2994;51.220;4.412;2023-05-10T09:33:50;17.50;;;13.40;;
5937;SDS011;2994;51.220;4.412;2023-05-10T09:36:16;21.73;;;16.27;;
5937;SDS011;2994;51.220;4.412;2023-05-10T09:38:46;22.27;;;16.40;;
5937;SDS011;2994;51.220;4.412;2023-05-10T09:41:22;26.00;;;16.60;;
5937;SDS011;2994;51.220;4.412;2023-05-10T09:43:49;25.20;;;18.27;;
5937;SDS011;2994;51.220;4.412;2023-05-10T09:46:15;29.27;;;20.20;;
5937;SDS011;2994;51.220;4.412;2023-05-10T09:48:44;26.07;;;18.43;;
5937;SDS011;2994;51.220;4.412;2023-05-10T09:51:22;29.87;;;20.30;;
5937;SDS011;2994;51.220;4.412;2023-05-10T09:54:08;30.37;;;19.23;;
5937;SDS011;2994;51.220;4.412;2023-05-10T09:56:35;22.33;;;15.00;;
5937;SDS011;2994;51.220;4.412;2023-05-10T09:59:02;19.60;;;14.10;;
5937;SDS011;2994;51.220;4.412;2023-05-10T10:01:28;18.67;;;13.43;;
5937;SDS011;2994;51.220;4.412;2023-05-10T10:03:54;18.37;;;12.80;;
5937;SDS011;2994;51.220;4.412;2023-05-10T10:06:22;17.70;;;13.07;;
5937;SDS011;2994;51.220;4.412;2023-05-10T10:08:48;16.17;;;12.80;;
5937;SDS011;2994;51.220;4.412;2023-05-10T10:11:14;20.67;;;13.70;;
5937;SDS011;2994;51.220;4.412;2023-05-10T10:13:40;19.87;;;14.03;;
5937;SDS011;2994;51.220;4.412;2023-05-10T10:16:05;15.57;;;13.30;;
5937;SDS011;2994;51.220;4.412;2023-05-10T10:18:35;21.60;;;15.13;;
5937;SDS011;2994;51.220;4.412;2023-05-10T10:21:08;23.70;;;13.60;;
5937;SDS011;2994;51.220;4.412;2023-05-10T10:23:35;25.87;;;15.97;;
5937;SDS011;2994;51.220;4.412;2023-05-10T10:26:01;21.83;;;13.63;;
5937;SDS011;2994;51.220;4.412;2023-05-10T10:28:35;19.77;;;12.50;;
5937;SDS011;2994;51.220;4.412;2023-05-10T10:31:17;18.53;;;13.03;;
5937;SDS011;2994;51.220;4.412;2023-05-10T10:36:24;16.77;;;12.93;;
5937;SDS011;2994;51.220;4.412;2023-05-10T10:38:58;17.63;;;11.90;;
5937;SDS011;2994;51.220;4.412;2023-05-10T10:41:38;17.03;;;11.63;;
5937;SDS011;2994;51.220;4.412;2023-05-10T10:47:27;15.73;;;11.63;;
5937;SDS011;2994;51.220;4.412;2023-05-10T10:52:35;17.27;;;11.10;;
5937;SDS011;2994;51.220;4.412;2023-05-10T10:57:31;17.40;;;11.73;;
5937;SDS011;2994;51.220;4.412;2023-05-10T11:02:53;16.80;;;11.60;;
5937;SDS011;2994;51.220;4.412;2023-05-10T11:11:02;19.77;;;12.33;;
5937;SDS011;2994;51.220;4.412;2023-05-10T11:16:18;16.33;;;11.17;;
5937;SDS011;2994;51.220;4.412;2023-05-10T11:18:56;18.83;;;13.00;;
5937;SDS011;2994;51.220;4.412;2023-05-10T11:21:22;16.80;;;12.10;;
5937;SDS011;2994;51.220;4.412;2023-05-10T11:26:25;19.80;;;12.37;;
5937;SDS011;2994;51.220;4.412;2023-05-10T11:28:57;18.73;;;13.30;;
5937;SDS011;2994;51.220;4.412;2023-05-10T11:31:27;15.53;;;11.20;;
5937;SDS011;2994;51.220;4.412;2023-05-10T11:33:53;14.60;;;10.50;;
5937;SDS011;2994;51.220;4.412;2023-05-10T11:36:23;17.83;;;12.07;;
5937;SDS011;2994;51.220;4.412;2023-05-10T11:38:51;16.40;;;11.60;;
5937;SDS011;2994;51.220;4.412;2023-05-10T11:41:18;19.43;;;13.37;;
5937;SDS011;2994;51.220;4.412;2023-05-10T11:43:46;14.97;;;11.53;;
5937;SDS011;2994;51.220;4.412;2023-05-10T11:46:14;17.47;;;11.93;;
5937;SDS011;2994;51.220;4.412;2023-05-10T11:48:40;19.60;;;11.93;;
5937;SDS011;2994;51.220;4.412;2023-05-10T11:51:07;16.67;;;11.33;;
5937;SDS011;2994;51.220;4.412;2023-05-10T11:53:33;14.43;;;11.20;;
5937;SDS011;2994;51.220;4.412;2023-05-10T11:56:03;16.57;;;11.03;;
5937;SDS011;2994;51.220;4.412;2023-05-10T11:58:30;17.73;;;11.73;;
5937;SDS011;2994;51.220;4.412;2023-05-10T12:00:56;13.77;;;10.50;;
5937;SDS011;2994;51.220;4.412;2023-05-10T12:03:27;18.63;;;12.80;;
5937;SDS011;2994;51.220;4.412;2023-05-10T12:06:00;16.67;;;11.93;;
5937;SDS011;2994;51.220;4.412;2023-05-10T12:08:27;16.03;;;11.83;;
5937;SDS011;2994;51.220;4.412;2023-05-10T12:11:03;16.80;;;11.17;;
5937;SDS011;2994;51.220;4.412;2023-05-10T12:13:30;15.57;;;11.30;;
5937;SDS011;2994;51.220;4.412;2023-05-10T12:15:59;17.60;;;13.10;;
5937;SDS011;2994;51.220;4.412;2023-05-10T12:18:25;15.47;;;12.50;;
5937;SDS011;2994;51.220;4.412;2023-05-10T12:20:54;15.17;;;12.43;;
5937;SDS011;2994;51.220;4.412;2023-05-10T12:23:27;16.70;;;12.40;;
5937;SDS011;2994;51.220;4.412;2023-05-10T12:25:53;16.50;;;11.33;;
5937;SDS011;2994;51.220;4.412;2023-05-10T12:28:18;14.60;;;11.87;;
5937;SDS011;2994;51.220;4.412;2023-05-10T12:33:25;16.00;;;11.47;;
5937;SDS011;2994;51.220;4.412;2023-05-10T12:35:52;13.70;;;10.33;;
5937;SDS011;2994;51.220;4.412;2023-05-10T12:38:24;14.33;;;10.60;;
5937;SDS011;2994;51.220;4.412;2023-05-10T12:41:02;14.20;;;10.40;;
5937;SDS011;2994;51.220;4.412;2023-05-10T12:43:29;14.20;;;10.10;;
5937;SDS011;2994;51.220;4.412;2023-05-10T12:45:55;15.17;;;12.20;;
5937;SDS011;2994;51.220;4.412;2023-05-10T12:48:21;14.13;;;10.20;;
5937;SDS011;2994;51.220;4.412;2023-05-10T12:50:47;16.60;;;11.60;;
5937;SDS011;2994;51.220;4.412;2023-05-10T12:53:16;13.07;;;11.10;;
5937;SDS011;2994;51.220;4.412;2023-05-10T12:55:42;17.13;;;11.00;;
5937;SDS011;2994;51.220;4.412;2023-05-10T12:58:08;14.80;;;10.97;;
5937;SDS011;2994;51.220;4.412;2023-05-10T13:00:34;16.13;;;10.80;;
5937;SDS011;2994;51.220;4.412;2023-05-10T13:03:00;14.90;;;11.50;;
5937;SDS011;2994;51.220;4.412;2023-05-10T13:05:25;14.07;;;10.97;;
5937;SDS011;2994;51.220;4.412;2023-05-10T13:07:51;11.03;;;9.73;;
5937;SDS011;2994;51.220;4.412;2023-05-10T13:10:16;17.73;;;11.77;;
5937;SDS011;2994;51.220;4.412;2023-05-10T13:12:42;15.63;;;12.60;;
5937;SDS011;2994;51.220;4.412;2023-05-10T13:15:08;18.03;;;11.63;;
5937;SDS011;2994;51.220;4.412;2023-05-10T13:17:33;14.37;;;11.10;;
5937;SDS011;2994;51.220;4.412;2023-05-10T13:19:59;15.00;;;11.63;;
5937;SDS011;2994;51.220;4.412;2023-05-10T13:22:25;15.20;;;10.40;;
5937;SDS011;2994;51.220;4.412;2023-05-10T13:24:50;18.27;;;12.77;;
5937;SDS011;2994;51.220;4.412;2023-05-10T13:27:16;15.17;;;12.13;;
5937;SDS011;2994;51.220;4.412;2023-05-10T13:29:41;18.50;;;12.30;;
5937;SDS011;2994;51.220;4.412;2023-05-10T13:32:07;18.30;;;10.90;;
5937;SDS011;2994;51.220;4.412;2023-05-10T13:34:32;13.70;;;11.10;;
5937;SDS011;2994;51.220;4.412;2023-05-10T13:36:58;16.63;;;11.53;;
5937;SDS011;2994;51.220;4.412;2023-05-10T13:39:23;15.73;;;11.50;;
5937;SDS011;2994;51.220;4.412;2023-05-10T13:41:49;16.03;;;12.20;;
5937;SDS011;2994;51.220;4.412;2023-05-10T13:44:14;15.13;;;12.50;;
5937;SDS011;2994;51.220;4.412;2023-05-10T13:46:41;19.00;;;13.87;;
5937;SDS011;2994;51.220;4.412;2023-05-10T13:49:08;14.93;;;12.90;;
5937;SDS011;2994;51.220;4.412;2023-05-10T13:51:34;20.47;;;15.60;;
5937;SDS011;2994;51.220;4.412;2023-05-10T13:54:00;18.73;;;13.23;;
5937;SDS011;2994;51.220;4.412;2023-05-10T13:56:26;19.33;;;13.90;;
5937;SDS011;2994;51.220;4.412;2023-05-10T13:58:52;16.23;;;13.40;;
5937;SDS011;2994;51.220;4.412;2023-05-10T14:01:17;17.03;;;12.83;;
5937;SDS011;2994;51.220;4.412;2023-05-10T14:03:43;15.87;;;12.50;;
5937;SDS011;2994;51.220;4.412;2023-05-10T14:06:08;19.17;;;13.50;;
5937;SDS011;2994;51.220;4.412;2023-05-10T14:08:34;16.07;;;13.47;;
5937;SDS011;2994;51.220;4.412;2023-05-10T14:11:00;19.70;;;14.90;;
5937;SDS011;2994;51.220;4.412;2023-05-10T14:13:26;20.67;;;13.97;;
5937;SDS011;2994;51.220;4.412;2023-05-10T14:15:52;15.80;;;13.40;;
5937;SDS011;2994;51.220;4.412;2023-05-10T14:18:18;17.57;;;14.13;;
5937;SDS011;2994;51.220;4.412;2023-05-10T14:20:46;17.80;;;13.63;;
5937;SDS011;2994;51.220;4.412;2023-05-10T14:23:12;18.90;;;14.60;;
5937;SDS011;2994;51.220;4.412;2023-05-10T14:25:38;18.03;;;13.97;;
5937;SDS011;2994;51.220;4.412;2023-05-10T14:28:06;17.10;;;13.20;;
5937;SDS011;2994;51.220;4.412;2023-05-10T14:30:32;21.43;;;16.20;;
5937;SDS011;2994;51.220;4.412;2023-05-10T14:32:59;17.63;;;13.10;;
5937;SDS011;2994;51.220;4.412;2023-05-10T14:35:26;19.37;;;13.50;;
5937;SDS011;2994;51.220;4.412;2023-05-10T14:37:56;19.00;;;15.50;;
5937;SDS011;2994;51.220;4.412;2023-05-10T14:40:22;18.13;;;14.60;;
5937;SDS011;2994;51.220;4.412;2023-05-10T14:42:47;23.20;;;17.23;;
5937;SDS011;2994;51.220;4.412;2023-05-10T14:45:13;21.50;;;15.30;;
5937;SDS011;2994;51.220;4.412;2023-05-10T14:47:38;20.63;;;16.03;;
5937;SDS011;2994;51.220;4.412;2023-05-10T14:50:04;22.20;;;16.10;;
5937;SDS011;2994;51.220;4.412;2023-05-10T14:52:30;24.47;;;17.00;;
5937;SDS011;2994;51.220;4.412;2023-05-10T14:54:56;14.40;;;12.20;;
5937;SDS011;2994;51.220;4.412;2023-05-10T14:57:22;9.90;;;8.27;;
5937;SDS011;2994;51.220;4.412;2023-05-10T14:59:47;9.37;;;7.37;;
5937;SDS011;2994;51.220;4.412;2023-05-10T15:02:13;8.27;;;6.30;;
5937;SDS011;2994;51.220;4.412;2023-05-10T15:04:38;8.60;;;6.63;;
5937;SDS011;2994;51.220;4.412;2023-05-10T15:07:04;6.67;;;5.80;;
5937;SDS011;2994;51.220;4.412;2023-05-10T15:09:29;7.77;;;6.37;;
5937;SDS011;2994;51.220;4.412;2023-05-10T15:11:55;7.90;;;6.60;;
5937;SDS011;2994;51.220;4.412;2023-05-10T15:14:21;8.17;;;6.73;;
5937;SDS011;2994;51.220;4.412;2023-05-10T15:16:47;10.57;;;7.17;;
5937;SDS011;2994;51.220;4.412;2023-05-10T15:19:13;9.50;;;6.70;;
5937;SDS011;2994;51.220;4.412;2023-05-10T15:21:38;8.20;;;7.40;;
5937;SDS011;2994;51.220;4.412;2023-05-10T15:24:07;10.07;;;8.37;;
5937;SDS011;2994;51.220;4.412;2023-05-10T15:26:33;9.40;;;8.40;;
5937;SDS011;2994;51.220;4.412;2023-05-10T15:28:59;12.43;;;9.30;;
5937;SDS011;2994;51.220;4.412;2023-05-10T15:31:24;9.37;;;8.47;;
5937;SDS011;2994;51.220;4.412;2023-05-10T15:33:50;11.27;;;9.10;;
5937;SDS011;2994;51.220;4.412;2023-05-10T15:36:28;10.00;;;9.00;;
5937;SDS011;2994;51.220;4.412;2023-05-10T15:38:54;10.57;;;9.57;;
5937;SDS011;2994;51.220;4.412;2023-05-10T15:41:20;11.07;;;9.90;;